This is the latest recevied weather packets stored in our database for station/object YF9UAG-15. If no packets are shown the sender has not sent any weather packets the latest 10 day(s).
| Time | Temp. | Humidity | Pressure | Rain* | Wind** | Luminosity | Snow |
|---|---|---|---|---|---|---|---|
| 1787480005 | 30.56° C | 70% | 1017.8 hPa | - | - | - | - |
| 1787479405 | 30.56° C | 72% | 1017.7 hPa | - | - | - | - |
| 1787478805 | 30.56° C | 71% | 1017.5 hPa | - | - | - | - |
| 1787478205 | 30.56° C | 71% | 1017.5 hPa | - | - | - | - |
| 1787477605 | 30.56° C | 69% | 1017.3 hPa | - | - | - | - |
| 1787477005 | 30.56° C | 72% | 1017.1 hPa | - | - | - | - |
| 1787476405 | 30.56° C | 100% | 1017 hPa | - | - | - | - |
| 1787475805 | 31.11° C | 100% | 1016.9 hPa | - | - | - | - |
| 1787475205 | 31.11° C | 100% | 1016.7 hPa | - | - | - | - |
| 1787474604 | 31.11° C | 100% | 1016.6 hPa | - | - | - | - |
| 1787474004 | 31.11° C | 100% | 1016.4 hPa | - | - | - | - |
| 1787431403 | 27.22° C | 57% | 1019.8 hPa | - | - | - | - |
| 1787430803 | 27.22° C | 55% | 1019.7 hPa | - | - | - | - |
| 1787430203 | 27.22° C | 54% | 1019.6 hPa | - | - | - | - |
| 1787429603 | 27.22° C | 53% | 1019.6 hPa | - | - | - | - |
| 1787429003 | 27.22° C | 51% | 1019.5 hPa | - | - | - | - |
| 1787428403 | 27.78° C | 55% | 1019.3 hPa | - | - | - | - |
| 1787427803 | 27.78° C | 58% | 1019.2 hPa | - | - | - | - |
| 1787427203 | 27.78° C | 56% | 1019.2 hPa | - | - | - | - |
| 1787426603 | 27.78° C | 56% | 1019.1 hPa | - | - | - | - |
| 1787426003 | 27.78° C | 58% | 1018.9 hPa | - | - | - | - |
| 1787425403 | 27.78° C | 58% | 1018.8 hPa | - | - | - | - |
| 1787424803 | 27.78° C | 57% | 1018.8 hPa | - | - | - | - |
| 1787424203 | 27.78° C | 57% | 1018.7 hPa | - | - | - | - |
| 1787423603 | 27.78° C | 56% | 1018.7 hPa | - | - | - | - |
* Rain since midnight (hover to see other rain measurements)
** Current wind speed in m/s (hover to see current wind gust speed)